createdAt,value
2023-01-15T00:01:54.540Z,26.70
2023-01-15T00:04:22.606Z,18.10
2023-01-15T00:06:50.861Z,16.80
2023-01-15T00:09:18.054Z,18.40
2023-01-15T00:11:44.958Z,16.80
2023-01-15T00:14:12.590Z,20.00
2023-01-15T00:16:40.930Z,21.50
2023-01-15T00:19:11.054Z,26.60
2023-01-15T00:21:39.915Z,18.90
2023-01-15T00:24:25.971Z,22.30
2023-01-15T00:27:11.989Z,25.20
2023-01-15T00:29:39.338Z,25.30
2023-01-15T00:32:07.220Z,44.90
2023-01-15T00:34:34.870Z,42.50
2023-01-15T00:37:02.393Z,26.60
2023-01-15T00:39:33.540Z,22.30
2023-01-15T00:42:00.780Z,17.90
2023-01-15T00:44:28.478Z,25.40
2023-01-15T00:46:55.419Z,22.40
2023-01-15T00:49:22.577Z,25.30
2023-01-15T00:51:51.530Z,22.70
2023-01-15T00:54:19.197Z,27.30
2023-01-15T00:56:48.524Z,29.70
2023-01-15T00:59:15.806Z,21.20
2023-01-15T01:01:43.459Z,17.30
2023-01-15T01:04:11.257Z,23.80
2023-01-15T01:06:38.414Z,22.90
2023-01-15T01:09:05.810Z,26.70
2023-01-15T01:11:34.730Z,20.90
2023-01-15T01:14:02.667Z,20.40
2023-01-15T01:16:36.166Z,20.40
2023-01-15T01:19:17.666Z,20.80
2023-01-15T01:21:45.033Z,20.70
2023-01-15T01:24:13.444Z,18.80
2023-01-15T01:26:45.441Z,20.60
2023-01-15T01:29:17.196Z,22.90
2023-01-15T01:31:44.024Z,22.90
2023-01-15T01:34:11.529Z,19.00
2023-01-15T01:36:39.798Z,21.50
2023-01-15T01:39:07.733Z,14.80
2023-01-15T01:41:34.675Z,18.30
2023-01-15T01:44:01.760Z,18.30
2023-01-15T01:46:30.961Z,16.70
2023-01-15T01:49:02.436Z,17.70
2023-01-15T01:51:32.203Z,19.80
2023-01-15T01:53:58.999Z,16.50
2023-01-15T01:56:26.026Z,19.50
2023-01-15T01:58:55.082Z,28.60
2023-01-15T02:01:23.493Z,24.90
2023-01-15T02:03:54.357Z,24.60
2023-01-15T02:06:21.206Z,24.40
2023-01-15T02:08:48.603Z,19.50
2023-01-15T02:11:21.114Z,20.60
2023-01-15T02:14:26.002Z,22.70
2023-01-15T02:17:14.463Z,18.90
2023-01-15T02:19:48.935Z,20.30
2023-01-15T02:22:20.232Z,23.90
2023-01-15T02:25:08.263Z,26.20
2023-01-15T02:27:36.614Z,27.60
2023-01-15T02:30:12.609Z,20.70
2023-01-15T02:32:51.584Z,26.20
2023-01-15T02:35:29.304Z,27.60
2023-01-15T02:37:59.372Z,21.60
2023-01-15T02:42:54.468Z,17.00
2023-01-15T02:45:32.407Z,19.50
2023-01-15T02:48:11.917Z,21.00
2023-01-15T02:50:44.506Z,19.10
2023-01-15T02:53:14.365Z,19.20
2023-01-15T02:55:43.249Z,14.50
2023-01-15T02:58:16.782Z,16.40
2023-01-15T03:00:45.875Z,17.90
2023-01-15T03:03:21.818Z,16.90
2023-01-15T03:06:00.773Z,20.10
2023-01-15T03:08:27.874Z,17.60
2023-01-15T03:11:17.159Z,16.90
2023-01-15T03:14:03.154Z,15.60
2023-01-15T03:16:41.639Z,15.50
2023-01-15T03:19:29.055Z,16.90
2023-01-15T03:22:23.762Z,21.20
2023-01-15T03:24:56.352Z,25.30
2023-01-15T03:27:23.837Z,15.80
2023-01-15T03:29:55.995Z,14.90
2023-01-15T03:32:23.239Z,20.00
2023-01-15T03:34:54.241Z,17.90
2023-01-15T03:37:23.407Z,15.80
2023-01-15T03:39:50.892Z,15.90
2023-01-15T03:42:46.969Z,17.10
2023-01-15T03:45:27.678Z,20.30
2023-01-15T03:48:02.990Z,16.30
2023-01-15T03:50:36.871Z,17.90
2023-01-15T03:53:10.684Z,17.40
2023-01-15T03:55:45.833Z,15.40
2023-01-15T03:58:19.309Z,13.50
2023-01-15T04:00:52.049Z,15.40
2023-01-15T04:03:20.644Z,22.10
2023-01-15T04:05:48.171Z,20.60
2023-01-15T04:08:17.864Z,19.50
2023-01-15T04:11:05.586Z,18.30
2023-01-15T04:13:39.676Z,16.30
2023-01-15T04:16:11.007Z,17.00
2023-01-15T04:18:38.241Z,20.90
2023-01-15T04:21:05.658Z,22.40
2023-01-15T07:28:07.395Z,13.70
2023-01-15T07:30:34.986Z,15.60
2023-01-15T07:33:02.053Z,17.20
2023-01-15T07:35:29.927Z,10.30
2023-01-15T07:37:57.116Z,10.40
2023-01-15T07:40:23.915Z,12.20
2023-01-15T07:43:14.325Z,16.70
2023-01-15T07:46:01.183Z,12.40
2023-01-15T07:48:46.598Z,14.10
2023-01-15T07:51:13.662Z,10.20
2023-01-15T07:53:40.601Z,11.30
2023-01-15T07:56:08.356Z,14.10
2023-01-15T07:58:35.925Z,14.50
2023-01-15T08:01:03.224Z,13.80
2023-01-15T08:03:30.545Z,13.10
2023-01-15T08:05:57.563Z,12.80
2023-01-15T08:08:24.471Z,9.40
2023-01-15T08:11:10.922Z,14.00
2023-01-15T08:13:56.726Z,13.40
2023-01-15T08:16:24.687Z,11.60
2023-01-15T08:18:51.881Z,12.50
2023-01-15T08:21:20.071Z,14.90
2023-01-15T08:23:47.988Z,12.00
2023-01-15T08:26:15.067Z,12.50
2023-01-15T08:28:42.170Z,14.50
2023-01-15T08:31:09.305Z,13.00
2023-01-15T08:40:01.595Z,12.10
2023-01-15T08:42:27.805Z,12.30
2023-01-15T08:44:54.033Z,14.10
2023-01-15T08:47:20.780Z,14.10
2023-01-15T08:49:49.940Z,10.80
2023-01-15T08:52:16.403Z,9.50
2023-01-15T08:54:43.354Z,13.70
2023-01-15T08:57:11.824Z,12.20
2023-01-15T08:59:38.327Z,13.40
2023-01-15T09:02:05.032Z,11.10
2023-01-15T09:04:31.536Z,10.10
2023-01-15T09:06:57.893Z,9.60
2023-01-15T09:09:24.126Z,10.20
2023-01-15T09:11:50.580Z,12.80
2023-01-15T09:14:57.862Z,12.20
2023-01-15T09:17:03.770Z,10.80
2023-01-15T09:19:30.463Z,14.60
2023-01-15T09:21:56.631Z,12.50
2023-01-15T09:24:23.246Z,11.20
2023-01-15T09:26:52.692Z,13.40
2023-01-15T09:29:19.329Z,15.20
2023-01-15T09:31:47.485Z,11.20
2023-01-15T09:34:13.729Z,10.80
2023-01-15T09:36:41.318Z,9.90
2023-01-15T09:39:08.232Z,10.50
2023-01-15T09:42:09.155Z,10.60
2023-01-15T09:44:52.176Z,11.90
2023-01-15T09:47:18.805Z,16.40
2023-01-15T09:50:06.537Z,13.70
2023-01-15T09:53:04.397Z,13.70
2023-01-15T09:55:35.551Z,14.60
2023-01-15T09:58:04.229Z,13.80
2023-01-15T10:00:39.682Z,14.30
2023-01-15T10:03:28.767Z,14.20
2023-01-15T10:06:01.856Z,11.50
2023-01-15T10:08:31.548Z,11.10
2023-01-15T10:11:18.443Z,13.30
2023-01-15T10:13:53.586Z,13.00
2023-01-15T10:16:25.733Z,13.60
2023-01-15T10:18:52.280Z,15.40
2023-01-15T10:21:36.967Z,13.00
2023-01-15T10:24:40.031Z,14.30
2023-01-15T10:27:17.430Z,13.30
2023-01-15T10:29:54.400Z,12.90
2023-01-15T10:32:31.176Z,15.30
2023-01-15T10:35:25.244Z,16.00
2023-01-15T10:38:12.364Z,12.20
2023-01-15T10:41:20.277Z,13.20
2023-01-15T10:44:04.490Z,13.60
2023-01-15T10:46:33.128Z,14.60
2023-01-15T10:49:02.907Z,15.10
2023-01-15T10:51:30.991Z,17.00
2023-01-15T10:54:04.616Z,14.60
2023-01-15T16:14:37.593Z,28.50
2023-01-15T16:17:04.795Z,15.40
2023-01-15T16:19:31.949Z,30.20
2023-01-15T16:21:59.193Z,11.50
2023-01-15T16:24:29.381Z,9.20
2023-01-15T16:27:05.694Z,7.60
2023-01-15T16:32:00.089Z,7.00
2023-01-15T16:34:31.555Z,7.40
2023-01-15T16:36:59.190Z,13.40
2023-01-15T16:39:44.239Z,8.80
2023-01-15T16:42:35.479Z,16.70
2023-01-15T16:45:06.647Z,9.20
2023-01-15T16:47:34.675Z,7.80
2023-01-15T16:50:22.817Z,7.80
2023-01-15T16:52:54.008Z,9.90
2023-01-15T16:55:45.410Z,10.70
2023-01-15T16:58:12.468Z,5.00
2023-01-15T17:00:40.341Z,6.90
2023-01-15T17:03:14.471Z,21.10
2023-01-15T17:05:41.938Z,7.40
2023-01-15T17:08:18.872Z,10.20
2023-01-15T17:10:53.559Z,7.50
2023-01-15T17:13:21.085Z,9.40
2023-01-15T17:15:49.800Z,12.30
2023-01-15T17:18:26.170Z,6.90
2023-01-15T17:23:23.694Z,7.50
2023-01-15T17:25:51.017Z,5.20
2023-01-15T17:28:19.148Z,10.60
2023-01-15T17:30:48.598Z,11.80
2023-01-15T17:33:15.987Z,10.30
2023-01-15T17:35:43.112Z,7.20
2023-01-15T17:38:12.099Z,6.90
2023-01-15T17:40:39.422Z,9.40
2023-01-15T17:43:06.631Z,11.50
2023-01-15T17:45:34.026Z,7.60
2023-01-15T17:48:04.362Z,8.00
2023-01-15T17:50:31.597Z,7.40
2023-01-15T17:52:58.651Z,8.50
2023-01-15T17:55:44.438Z,8.00
2023-01-15T17:58:31.198Z,14.10
2023-01-15T18:01:16.875Z,6.10
2023-01-15T18:04:05.372Z,9.10
2023-01-15T18:06:33.447Z,9.60
2023-01-15T18:09:01.797Z,8.60
2023-01-15T18:11:29.760Z,9.60
2023-01-15T18:13:57.305Z,12.90
2023-01-15T18:16:25.388Z,12.20
2023-01-15T18:18:54.068Z,10.70
2023-01-15T18:21:21.861Z,16.60
2023-01-15T18:23:49.030Z,9.50
2023-01-15T18:26:15.877Z,11.70
2023-01-15T18:28:45.569Z,11.40
2023-01-15T22:45:45.153Z,14.70
2023-01-15T22:48:12.846Z,18.00
2023-01-15T22:50:39.688Z,17.40
2023-01-15T22:53:06.603Z,19.70
2023-01-15T22:55:36.671Z,15.00
2023-01-15T22:58:03.791Z,17.30
2023-01-15T23:00:30.744Z,12.80
2023-01-15T23:03:05.282Z,12.90
2023-01-15T23:05:37.283Z,11.40
2023-01-15T23:08:04.099Z,15.70
2023-01-15T23:10:31.116Z,12.50
2023-01-15T23:12:58.606Z,12.00
2023-01-15T23:15:25.818Z,17.10
2023-01-15T23:17:52.822Z,17.10
2023-01-15T23:20:20.105Z,11.90
2023-01-15T23:22:47.261Z,19.90
2023-01-15T23:25:14.234Z,11.50
2023-01-15T23:27:41.280Z,14.70
2023-01-15T23:30:09.273Z,9.70
2023-01-15T23:38:43.057Z,13.90
2023-01-15T23:41:14.076Z,11.80
2023-01-15T23:44:00.806Z,18.70
2023-01-15T23:46:35.574Z,12.70
2023-01-15T23:49:05.322Z,14.00
2023-01-15T23:51:32.687Z,13.70
2023-01-15T23:53:59.865Z,14.80
2023-01-15T23:56:28.370Z,13.70
2023-01-15T23:58:55.726Z,13.70
